Time;durP1;ratioP1;P1;durP2;ratioP2;P2;SDS_P1;SDS_P2;PMS_P1;PMS_P2;Temp;Humidity;BMP_temperature;BMP_pressure;BME280_temperature;BME280_humidity;BME280_pressure;Samples;Min_cycle;Max_cycle;Signal;HPM_P1;HPM_P2
2022/06/25 00:01:54;;;;;;;41.42;33.10;;;17.40;99.90;;;;;;4942063;28;20496;-75
2022/06/25 00:07:04;;;;;;;42.88;37.08;;;17.40;99.90;;;;;;4937998;28;20527;-76
2022/06/25 00:09:30;;;;;;;43.95;34.40;;;17.50;99.90;;;;;;4926919;29;20074;-75
2022/06/25 00:14:39;;;;;;;38.55;34.13;;;17.50;99.90;;;;;;4941213;29;20050;-75
2022/06/25 00:17:06;;;;;;;37.25;33.30;;;17.50;99.90;;;;;;4921657;29;20126;-75
2022/06/25 00:19:32;;;;;;;41.50;33.90;;;17.40;99.90;;;;;;4921930;29;20051;-75
2022/06/25 00:21:58;;;;;;;37.90;32.95;;;17.40;99.90;;;;;;4922940;28;20515;-75
2022/06/25 00:24:23;;;;;;;39.85;31.65;;;17.40;99.90;;;;;;4922103;29;20086;-75
2022/06/25 00:26:50;;;;;;;36.60;32.00;;;17.40;99.90;;;;;;4926459;29;20055;-75
2022/06/25 00:29:17;;;;;;;35.72;31.27;;;17.40;99.90;;;;;;4927026;29;20047;-74
2022/06/25 00:31:43;;;;;;;37.00;32.15;;;17.30;99.90;;;;;;4927218;29;20131;-75
2022/06/25 00:34:09;;;;;;;38.00;32.63;;;17.30;99.90;;;;;;4910675;29;20036;-75
2022/06/25 00:36:35;;;;;;;36.90;32.05;;;17.20;99.90;;;;;;4928256;29;20061;-75
2022/06/25 00:39:01;;;;;;;33.80;30.20;;;17.30;99.90;;;;;;4949465;28;20136;-75
2022/06/25 00:41:28;;;;;;;35.88;31.50;;;17.30;99.90;;;;;;4950317;28;20039;-74
2022/06/25 00:43:54;;;;;;;34.45;30.75;;;17.30;99.90;;;;;;4925800;29;20074;-75
2022/06/25 00:46:20;;;;;;;35.97;30.60;;;17.30;99.90;;;;;;4933251;29;20079;-75
2022/06/25 00:48:45;;;;;;;36.50;30.95;;;17.20;99.90;;;;;;4929511;29;20536;-75
2022/06/25 00:51:13;;;;;;;33.22;29.63;;;17.20;99.90;;;;;;4922329;29;20540;-75
2022/06/25 00:53:43;;;;;;;34.35;29.42;;;17.20;99.90;;;;;;4945356;29;20485;-74
2022/06/25 00:56:11;;;;;;;34.55;30.75;;;17.20;99.90;;;;;;4941935;28;20288;-75
2022/06/25 00:58:42;;;;;;;32.00;28.50;;;17.10;99.90;;;;;;4943809;29;20039;-75
2022/06/25 01:01:09;;;;;;;36.88;30.67;;;17.10;99.90;;;;;;4925398;29;20039;-76
2022/06/25 01:03:36;;;;;;;34.05;29.27;;;17.10;99.90;;;;;;4941790;28;20043;-76
2022/06/25 01:06:03;;;;;;;34.80;30.27;;;17.10;99.90;;;;;;4929828;29;20044;-75
2022/06/25 01:08:30;;;;;;;37.08;29.58;;;17.00;99.90;;;;;;4941575;29;20114;-75
2022/06/25 01:10:56;;;;;;;33.75;28.65;;;17.00;99.90;;;;;;4929221;29;20047;-75
2022/06/25 01:13:22;;;;;;;32.58;28.98;;;17.00;99.90;;;;;;4941588;28;20528;-75
2022/06/25 01:15:49;;;;;;;33.70;28.60;;;17.00;99.90;;;;;;4927872;29;20051;-76
2022/06/25 01:18:15;;;;;;;35.17;30.35;;;17.00;99.90;;;;;;4924335;28;20452;-75
2022/06/25 01:20:42;;;;;;;32.10;28.60;;;16.90;99.90;;;;;;4911729;29;20050;-75
2022/06/25 01:23:12;;;;;;;32.20;28.40;;;16.90;99.90;;;;;;4943042;28;20047;-76
2022/06/25 01:25:39;;;;;;;33.85;28.17;;;16.90;99.90;;;;;;4943681;29;20074;-76
2022/06/25 01:28:06;;;;;;;31.65;27.23;;;16.80;99.90;;;;;;4943734;29;20044;-76
2022/06/25 01:30:32;;;;;;;33.97;27.88;;;16.80;99.90;;;;;;4907157;29;20121;-76
2022/06/25 01:32:58;;;;;;;31.83;27.60;;;16.80;99.90;;;;;;4941034;28;20133;-75
2022/06/25 01:35:24;;;;;;;28.45;25.42;;;16.80;99.90;;;;;;4927843;29;20118;-75
2022/06/25 01:37:50;;;;;;;31.05;25.73;;;16.70;99.90;;;;;;4928981;29;20398;-75
2022/06/25 01:40:16;;;;;;;29.83;25.40;;;16.70;99.90;;;;;;4943012;28;20448;-75
2022/06/25 01:43:00;;;;;;;28.98;23.67;;;16.80;99.90;;;;;;4923319;29;20174;-76
2022/06/25 01:45:37;;;;;;;30.10;25.83;;;16.80;99.90;;;;;;4938351;28;20043;-76
2022/06/25 01:48:05;;;;;;;26.90;24.02;;;16.80;99.90;;;;;;4926515;29;20054;-76
2022/06/25 01:50:31;;;;;;;27.65;24.38;;;16.70;99.90;;;;;;4907800;29;20136;-76
2022/06/25 01:52:57;;;;;;;26.33;23.42;;;16.70;99.90;;;;;;4942363;29;20536;-76
2022/06/25 01:55:23;;;;;;;27.13;23.95;;;16.70;99.90;;;;;;4942589;28;20051;-77
2022/06/25 01:57:49;;;;;;;27.00;23.90;;;16.70;99.90;;;;;;4938512;29;20043;-76
2022/06/25 02:00:19;;;;;;;27.10;23.33;;;16.70;99.90;;;;;;4939909;28;20043;-76
2022/06/25 02:02:45;;;;;;;26.63;23.48;;;16.70;99.90;;;;;;4949751;28;20043;-75
2022/06/25 02:05:13;;;;;;;28.40;23.05;;;16.70;99.90;;;;;;4925082;29;20468;-75
2022/06/25 02:07:39;;;;;;;25.85;22.80;;;16.70;99.90;;;;;;4940893;29;20433;-75
2022/06/25 02:10:05;;;;;;;25.83;21.63;;;16.70;99.90;;;;;;4938603;28;20142;-76
2022/06/25 02:12:31;;;;;;;27.42;21.02;;;16.70;99.90;;;;;;4922734;29;20047;-75
2022/06/25 02:14:57;;;;;;;25.63;21.50;;;16.70;99.90;;;;;;4923444;29;20054;-76
2022/06/25 02:17:23;;;;;;;23.48;20.92;;;16.80;99.90;;;;;;4943306;29;20054;-75
2022/06/25 02:19:49;;;;;;;26.17;20.42;;;16.70;99.90;;;;;;4942983;28;20050;-76
2022/06/25 02:22:15;;;;;;;23.63;19.45;;;16.70;99.90;;;;;;4946287;28;20039;-75
2022/06/25 02:24:42;;;;;;;22.95;18.92;;;16.70;99.90;;;;;;4939473;28;20078;-76
2022/06/25 02:27:08;;;;;;;23.95;20.30;;;16.70;99.90;;;;;;4920563;29;20612;-75
2022/06/25 02:29:34;;;;;;;21.92;19.50;;;16.70;99.90;;;;;;4926412;29;20055;-75
2022/06/25 02:32:00;;;;;;;21.35;19.05;;;16.60;99.90;;;;;;4937099;29;20047;-75
2022/06/25 02:34:25;;;;;;;22.83;20.40;;;16.60;99.90;;;;;;4943671;28;20054;-75
2022/06/25 02:36:52;;;;;;;21.77;17.85;;;16.60;99.90;;;;;;4924204;29;20428;-75
2022/06/25 02:39:18;;;;;;;20.88;18.10;;;16.60;99.90;;;;;;4940978;28;20500;-75
2022/06/25 02:41:44;;;;;;;23.17;18.98;;;16.60;99.90;;;;;;4928870;29;20055;-76
2022/06/25 02:44:13;;;;;;;20.65;17.90;;;16.50;99.90;;;;;;4924066;29;20428;-75
2022/06/25 02:46:38;;;;;;;23.48;18.25;;;16.50;99.90;;;;;;4941446;29;21175;-76
2022/06/25 02:49:04;;;;;;;21.15;18.05;;;16.50;99.90;;;;;;4940786;28;20036;-75
2022/06/25 02:51:30;;;;;;;20.95;17.20;;;16.50;99.90;;;;;;4926991;29;20178;-76
2022/06/25 02:53:56;;;;;;;25.73;19.38;;;16.40;99.90;;;;;;4938558;29;20532;-75
2022/06/25 02:59:07;;;;;;;18.85;16.38;;;16.40;99.90;;;;;;4927554;29;20420;-75
2022/06/25 03:01:33;;;;;;;21.00;17.42;;;16.40;99.90;;;;;;4945082;28;20568;-76
2022/06/25 03:03:59;;;;;;;19.27;17.20;;;16.40;99.90;;;;;;4928617;29;20081;-76
2022/06/25 03:06:25;;;;;;;19.50;17.02;;;16.40;99.90;;;;;;4930088;29;20063;-76
2022/06/25 03:08:50;;;;;;;21.50;18.05;;;16.40;99.90;;;;;;4936862;28;20051;-75
2022/06/25 03:11:17;;;;;;;21.70;17.70;;;16.40;99.90;;;;;;4937688;28;20044;-75
2022/06/25 03:13:43;;;;;;;21.50;17.50;;;16.40;99.90;;;;;;4919929;29;20447;-75
2022/06/25 03:16:09;;;;;;;20.98;17.50;;;16.40;99.90;;;;;;4944492;28;20043;-75
2022/06/25 03:18:36;;;;;;;20.02;16.50;;;16.40;99.90;;;;;;4938938;29;20566;-76
2022/06/25 03:21:03;;;;;;;20.63;17.00;;;16.40;99.90;;;;;;4942557;28;20051;-75
2022/06/25 03:23:29;;;;;;;18.13;16.08;;;16.40;99.90;;;;;;4934628;29;20425;-76
2022/06/25 03:25:55;;;;;;;19.38;15.95;;;16.30;99.90;;;;;;4940968;29;20040;-76
2022/06/25 03:28:21;;;;;;;20.23;15.88;;;16.30;99.90;;;;;;4919805;29;20051;-75
2022/06/25 03:30:46;;;;;;;18.42;15.50;;;16.30;99.90;;;;;;4907437;29;20048;-75
2022/06/25 03:33:13;;;;;;;21.77;15.85;;;16.30;99.90;;;;;;4927966;29;20125;-76
2022/06/25 03:35:39;;;;;;;21.00;15.82;;;16.30;99.90;;;;;;4938669;29;20052;-75
2022/06/25 03:38:05;;;;;;;15.93;13.60;;;16.30;99.90;;;;;;4924970;29;20579;-75
2022/06/25 03:40:32;;;;;;;17.08;14.20;;;16.30;99.90;;;;;;4940615;29;20055;-76
2022/06/25 03:42:58;;;;;;;18.70;14.80;;;16.30;99.90;;;;;;4925076;29;20453;-75
2022/06/25 03:45:24;;;;;;;17.70;14.68;;;16.30;99.90;;;;;;4925017;29;20505;-75
2022/06/25 03:47:50;;;;;;;17.83;14.43;;;16.30;99.90;;;;;;4911550;29;20500;-75
2022/06/25 03:50:20;;;;;;;16.60;14.27;;;16.30;99.90;;;;;;4924492;29;20134;-75
2022/06/25 03:52:47;;;;;;;18.73;14.30;;;16.30;99.90;;;;;;4942651;29;20058;-75
2022/06/25 03:55:14;;;;;;;17.50;13.68;;;16.30;99.90;;;;;;4946967;28;20057;-75
2022/06/25 03:57:39;;;;;;;16.75;13.07;;;16.30;99.90;;;;;;4918822;29;20785;-76
2022/06/25 04:00:06;;;;;;;17.23;13.82;;;16.40;99.90;;;;;;4925948;28;20102;-75
2022/06/25 04:02:32;;;;;;;19.15;14.15;;;16.30;99.90;;;;;;4941787;28;20039;-76
2022/06/25 04:04:58;;;;;;;17.80;12.82;;;16.40;99.90;;;;;;4924303;29;20464;-75
2022/06/25 04:07:24;;;;;;;16.17;13.23;;;16.40;99.90;;;;;;4942419;28;20039;-76
2022/06/25 04:09:49;;;;;;;15.38;12.75;;;16.40;99.90;;;;;;4924982;29;20154;-78
2022/06/25 04:12:15;;;;;;;19.80;13.52;;;16.50;99.90;;;;;;4928999;29;20059;-75
2022/06/25 04:14:41;;;;;;;14.18;11.38;;;16.50;99.90;;;;;;4926268;29;20075;-76
2022/06/25 04:17:07;;;;;;;16.95;12.80;;;16.50;99.90;;;;;;4929556;28;20050;-77
2022/06/25 04:19:40;;;;;;;14.90;12.43;;;16.50;99.90;;;;;;4925688;29;20043;-75
2022/06/25 04:22:09;;;;;;;15.43;12.30;;;16.50;99.90;;;;;;4949720;28;20102;-75
2022/06/25 04:24:37;;;;;;;16.60;12.70;;;16.60;99.90;;;;;;4949314;28;20039;-76
2022/06/25 04:27:04;;;;;;;15.93;11.65;;;16.60;99.90;;;;;;4944558;28;20505;-76
2022/06/25 04:29:30;;;;;;;15.23;11.60;;;16.60;99.90;;;;;;4931638;29;20098;-75
2022/06/25 04:31:57;;;;;;;14.10;11.18;;;16.80;99.90;;;;;;4946598;28;20047;-76
2022/06/25 04:34:24;;;;;;;17.08;11.85;;;16.70;99.90;;;;;;4946887;29;20126;-76
2022/06/25 04:36:50;;;;;;;12.90;11.30;;;17.30;99.90;;;;;;4931877;29;20126;-76
2022/06/25 04:39:16;;;;;;;11.10;9.30;;;18.60;99.90;;;;;;4946454;29;20158;-76
2022/06/25 04:41:42;;;;;;;11.48;8.57;;;19.90;99.90;;;;;;4913609;29;20133;-74
2022/06/25 04:44:08;;;;;;;10.88;8.02;;;21.00;99.90;;;;;;4948064;29;20043;-75
2022/06/25 04:46:33;;;;;;;10.25;7.72;;;22.10;99.90;;;;;;4946126;28;20054;-75
2022/06/25 04:48:59;;;;;;;10.07;6.97;;;23.00;99.90;;;;;;4928051;29;20182;-75
2022/06/25 04:51:26;;;;;;;8.82;6.60;;;23.70;99.90;;;;;;4947214;28;20050;-74
2022/06/25 04:53:55;;;;;;;8.60;6.68;;;24.10;99.90;;;;;;4928664;29;20576;-74
2022/06/25 04:56:25;;;;;;;9.55;6.03;;;24.60;99.90;;;;;;4946907;29;20708;-73
2022/06/25 04:58:51;;;;;;;7.63;5.78;;;25.20;99.90;;;;;;4931865;29;20043;-75
2022/06/25 05:01:17;;;;;;;9.80;5.50;;;25.70;99.90;;;;;;4931344;29;20048;-75
2022/06/25 05:03:43;;;;;;;10.15;5.03;;;26.20;99.90;;;;;;4929331;29;20047;-75
2022/06/25 05:06:09;;;;;;;9.32;5.35;;;26.60;99.90;;;;;;4930344;29;20062;-74
2022/06/25 05:08:35;;;;;;;22.63;6.60;;;27.00;99.90;;;;;;4928739;29;20912;-75
2022/06/25 05:11:01;;;;;;;6.93;4.85;;;27.30;99.90;;;;;;4930826;29;20536;-75
2022/06/25 05:13:27;;;;;;;7.80;4.78;;;27.80;99.90;;;;;;4917457;29;20051;-75
2022/06/25 05:15:53;;;;;;;7.88;4.38;;;28.20;99.90;;;;;;4926562;29;20043;-75
2022/06/25 05:18:19;;;;;;;8.18;4.90;;;28.60;99.90;;;;;;4945899;29;20509;-75
2022/06/25 05:20:45;;;;;;;6.47;4.38;;;28.90;99.90;;;;;;4945523;28;20911;-75
2022/06/25 05:23:14;;;;;;;7.50;4.22;;;29.20;99.90;;;;;;4931758;29;20602;-74
2022/06/25 05:25:40;;;;;;;9.02;4.53;;;29.50;99.90;;;;;;4944533;28;20507;-75
2022/06/25 05:28:07;;;;;;;7.15;4.60;;;29.90;99.90;;;;;;4919470;29;20123;-74
2022/06/25 05:30:33;;;;;;;8.40;4.40;;;30.10;99.90;;;;;;4925769;29;20082;-74
2022/06/25 05:32:59;;;;;;;8.98;4.63;;;30.00;99.90;;;;;;4947304;29;20054;-75
2022/06/25 05:35:26;;;;;;;6.43;4.68;;;28.70;99.90;;;;;;4940887;29;20039;-75
2022/06/25 05:37:52;;;;;;;8.40;4.45;;;27.10;99.90;;;;;;4936144;28;20068;-75
2022/06/25 05:40:18;;;;;;;6.60;4.32;;;25.80;99.90;;;;;;4927053;29;20031;-74
2022/06/25 05:42:43;;;;;;;8.60;5.53;;;24.60;99.90;;;;;;4939625;29;20505;-75
2022/06/25 05:45:09;;;;;;;8.60;5.15;;;23.70;99.90;;;;;;4950132;29;20024;-75
2022/06/25 05:47:35;;;;;;;8.25;5.00;;;22.90;99.90;;;;;;4969498;28;20051;-75
2022/06/25 05:50:01;;;;;;;8.65;5.13;;;22.30;99.90;;;;;;4968238;28;20047;-75
2022/06/25 05:52:27;;;;;;;8.15;5.65;;;21.80;99.90;;;;;;4952389;29;20639;-75
2022/06/25 05:54:52;;;;;;;9.27;5.22;;;21.40;99.90;;;;;;4954607;28;20054;-75
2022/06/25 05:57:19;;;;;;;8.48;4.88;;;21.10;99.90;;;;;;4937968;29;20516;-75
2022/06/25 05:59:45;;;;;;;8.25;5.60;;;21.60;99.90;;;;;;4929358;29;20044;-75
2022/06/25 06:02:11;;;;;;;9.13;5.30;;;23.00;99.90;;;;;;4948305;29;20170;-75
2022/06/25 06:04:37;;;;;;;9.82;5.53;;;24.60;99.90;;;;;;4954093;28;20106;-75
2022/06/25 06:07:04;;;;;;;10.60;5.68;;;26.00;99.90;;;;;;4938045;29;20611;-75
2022/06/25 06:09:31;;;;;;;9.98;4.65;;;27.10;99.90;;;;;;4944016;28;20090;-75
2022/06/25 06:11:58;;;;;;;8.90;5.47;;;28.00;99.90;;;;;;4942523;29;20047;-76
2022/06/25 06:14:24;;;;;;;7.95;5.30;;;28.80;99.90;;;;;;4930292;29;20055;-75
2022/06/25 06:16:49;;;;;;;7.65;5.00;;;29.40;99.90;;;;;;4944999;28;20050;-75
2022/06/25 06:19:15;;;;;;;11.63;5.85;;;29.90;99.90;;;;;;4930709;29;20452;-74
2022/06/25 06:21:41;;;;;;;8.32;5.00;;;30.10;99.90;;;;;;4946680;28;20133;-74
2022/06/25 06:24:07;;;;;;;9.48;5.10;;;29.80;99.90;;;;;;4936235;29;20085;-75
2022/06/25 06:26:33;;;;;;;9.40;5.30;;;28.10;99.90;;;;;;4947266;28;20043;-74
2022/06/25 06:28:59;;;;;;;7.45;4.60;;;26.60;99.90;;;;;;4926696;29;20059;-75
2022/06/25 06:31:25;;;;;;;9.43;5.38;;;25.50;99.90;;;;;;4933259;29;20360;-75
2022/06/25 06:33:51;;;;;;;8.98;5.50;;;24.50;99.90;;;;;;4929647;29;20469;-75
2022/06/25 06:36:17;;;;;;;10.25;5.25;;;23.70;99.90;;;;;;4943815;28;20050;-75
2022/06/25 06:38:42;;;;;;;7.47;5.32;;;23.10;99.90;;;;;;4907893;29;20792;-74
2022/06/25 06:41:08;;;;;;;9.27;6.32;;;22.60;99.90;;;;;;4941474;29;20129;-74
2022/06/25 06:43:34;;;;;;;7.65;4.95;;;22.30;99.90;;;;;;4940798;29;20039;-74
2022/06/25 06:45:59;;;;;;;9.48;4.97;;;22.10;99.90;;;;;;4930032;29;20055;-73
2022/06/25 06:48:25;;;;;;;7.47;4.43;;;21.90;99.90;;;;;;4945764;28;20062;-73
2022/06/25 06:50:51;;;;;;;10.38;4.78;;;21.90;99.90;;;;;;4944709;28;20126;-72
2022/06/25 06:53:16;;;;;;;9.45;5.32;;;21.80;99.90;;;;;;4941145;28;20043;-73
2022/06/25 06:55:42;;;;;;;6.75;4.70;;;21.80;99.90;;;;;;4942792;29;20057;-73
2022/06/25 06:58:08;;;;;;;8.35;4.68;;;21.70;99.90;;;;;;4929123;29;20043;-73
2022/06/25 07:00:33;;;;;;;8.77;4.65;;;21.70;99.90;;;;;;4920526;29;20042;-73
2022/06/25 07:02:59;;;;;;;9.07;5.05;;;21.60;99.90;;;;;;4939748;28;20309;-73
2022/06/25 07:05:25;;;;;;;10.52;5.30;;;21.60;99.90;;;;;;4919195;29;20044;-73
2022/06/25 07:07:50;;;;;;;8.13;4.90;;;21.60;99.90;;;;;;4941192;28;20052;-73
2022/06/25 07:10:16;;;;;;;7.00;4.30;;;21.60;99.90;;;;;;4939498;28;20429;-73
2022/06/25 07:12:42;;;;;;;7.55;4.38;;;21.80;99.90;;;;;;4942070;28;20039;-73
2022/06/25 07:15:08;;;;;;;6.88;3.75;;;22.10;99.90;;;;;;4927421;29;20050;-73
2022/06/25 07:17:34;;;;;;;7.25;4.32;;;22.20;99.90;;;;;;4929302;29;20043;-73
2022/06/25 07:20:00;;;;;;;8.30;4.45;;;22.40;99.90;;;;;;4920245;28;20053;-73
2022/06/25 07:22:26;;;;;;;8.88;4.20;;;22.70;99.90;;;;;;4920083;28;20186;-74
2022/06/25 07:24:52;;;;;;;7.80;4.13;;;23.00;99.90;;;;;;4939259;28;20062;-73
2022/06/25 07:27:18;;;;;;;11.10;3.83;;;23.10;99.90;;;;;;4923806;29;20467;-73
2022/06/25 07:29:44;;;;;;;11.75;3.90;;;23.40;99.90;;;;;;4907923;29;20058;-73
2022/06/25 07:32:10;;;;;;;7.30;3.60;;;23.50;99.90;;;;;;4912391;29;20039;-73
2022/06/25 07:34:37;;;;;;;7.68;3.80;;;23.50;99.90;;;;;;4925225;29;20125;-73
2022/06/25 07:37:04;;;;;;;9.88;3.63;;;23.60;99.90;;;;;;4938159;28;20170;-73
2022/06/25 07:39:30;;;;;;;7.05;3.50;;;23.80;99.90;;;;;;4922202;28;20035;-72
2022/06/25 07:41:55;;;;;;;6.45;3.15;;;24.00;99.90;;;;;;4923191;29;20047;-73
2022/06/25 07:44:21;;;;;;;8.65;3.20;;;24.20;99.90;;;;;;4949683;28;20039;-73
2022/06/25 07:46:47;;;;;;;8.25;2.92;;;24.40;99.90;;;;;;4927422;29;20051;-72
2022/06/25 07:49:13;;;;;;;7.18;2.97;;;24.60;99.90;;;;;;4942236;28;20063;-73
2022/06/25 07:52:00;;;;;;;6.35;2.80;;;24.70;99.90;;;;;;4929884;29;20075;-71
2022/06/25 07:54:30;;;;;;;6.30;2.85;;;24.80;99.90;;;;;;4922515;29;20051;-73
2022/06/25 07:56:57;;;;;;;4.78;2.00;;;25.00;99.90;;;;;;4942868;28;20077;-73
2022/06/25 07:59:23;;;;;;;7.35;2.38;;;25.00;99.90;;;;;;4930260;29;20047;-73
2022/06/25 08:01:49;;;;;;;5.15;2.50;;;25.00;99.90;;;;;;4904310;29;20035;-73
2022/06/25 08:04:15;;;;;;;5.25;2.42;;;25.10;99.90;;;;;;4942038;29;20036;-74
2022/06/25 08:06:41;;;;;;;8.68;2.70;;;25.40;99.90;;;;;;4928534;29;20062;-74
2022/06/25 08:09:08;;;;;;;4.80;2.45;;;25.70;99.90;;;;;;4949001;28;20505;-74
2022/06/25 08:11:35;;;;;;;7.28;2.65;;;25.90;99.90;;;;;;4916731;29;20765;-73
2022/06/25 08:14:00;;;;;;;5.07;2.38;;;25.80;99.90;;;;;;4914460;29;20507;-73
2022/06/25 08:16:27;;;;;;;4.57;2.28;;;25.80;99.90;;;;;;4933046;29;20457;-72
2022/06/25 08:18:53;;;;;;;10.48;3.10;;;25.90;99.90;;;;;;4923227;29;20157;-73
2022/06/25 08:21:19;;;;;;;7.78;2.80;;;26.00;99.90;;;;;;4923512;29;20553;-73
2022/06/25 08:23:45;;;;;;;5.38;2.58;;;26.10;99.90;;;;;;4924520;29;20046;-72
2022/06/25 08:26:17;;;;;;;6.13;2.67;;;25.90;99.90;;;;;;4928497;29;20049;-71
2022/06/25 08:28:44;;;;;;;6.40;3.03;;;25.90;99.90;;;;;;4939060;28;20062;-72
2022/06/25 08:31:11;;;;;;;6.72;2.30;;;26.00;99.90;;;;;;4939409;28;20171;-72
2022/06/25 08:33:37;;;;;;;6.45;2.53;;;25.80;99.90;;;;;;4940623;29;20035;-72
2022/06/25 08:36:04;;;;;;;8.93;2.92;;;25.50;99.90;;;;;;4930379;29;20047;-72
2022/06/25 08:38:31;;;;;;;7.68;3.15;;;25.10;99.90;;;;;;4928789;29;20039;-72
2022/06/25 08:40:59;;;;;;;6.10;2.45;;;24.80;99.90;;;;;;4929113;29;20059;-72
2022/06/25 08:43:25;;;;;;;8.05;2.30;;;24.50;99.90;;;;;;4946963;28;20118;-71
2022/06/25 08:45:51;;;;;;;6.95;2.72;;;24.20;99.90;;;;;;4946133;28;20050;-72
2022/06/25 08:48:22;;;;;;;10.32;2.88;;;24.00;99.90;;;;;;4927186;28;20059;-72
2022/06/25 08:50:49;;;;;;;9.93;2.70;;;24.20;99.90;;;;;;4926804;29;20118;-72
2022/06/25 08:53:16;;;;;;;7.38;2.33;;;24.60;99.90;;;;;;4924637;29;20106;-73
2022/06/25 08:55:44;;;;;;;5.57;2.53;;;25.00;99.90;;;;;;4936753;28;20031;-74
2022/06/25 08:58:12;;;;;;;7.60;2.30;;;25.40;99.90;;;;;;4926638;29;20126;-74
2022/06/25 09:00:43;;;;;;;7.30;2.90;;;25.60;99.90;;;;;;4938724;28;20596;-73
2022/06/25 09:03:10;;;;;;;5.43;1.77;;;25.70;99.90;;;;;;4930622;29;20579;-72
2022/06/25 09:05:39;;;;;;;7.97;2.30;;;26.00;99.90;;;;;;4948599;28;20064;-73
2022/06/25 09:08:07;;;;;;;4.57;2.00;;;26.20;99.90;;;;;;4943133;28;20051;-74
2022/06/25 09:10:34;;;;;;;6.40;2.60;;;26.10;99.90;;;;;;4934870;29;20039;-74
2022/06/25 09:13:02;;;;;;;9.70;2.83;;;25.90;99.90;;;;;;4930300;29;20118;-71
2022/06/25 09:15:33;;;;;;;5.90;1.73;;;26.00;99.90;;;;;;4929435;29;20039;-76
2022/06/25 09:18:05;;;;;;;;;;;26.10;99.90;;;;;;4929015;29;20102;-74
2022/06/25 09:20:31;;;;;;;7.03;2.08;;;25.80;99.90;;;;;;4946035;28;20679;-74
2022/06/25 09:23:05;;;;;;;7.45;2.13;;;25.50;99.90;;;;;;4946954;28;20074;-74
2022/06/25 09:25:33;;;;;;;6.35;2.38;;;25.40;99.90;;;;;;4942649;29;20294;-73
2022/06/25 09:27:59;;;;;;;9.52;2.22;;;25.30;99.90;;;;;;4943642;29;20043;-75
2022/06/25 09:30:28;;;;;;;6.70;1.73;;;25.40;99.90;;;;;;4946500;28;20047;-74
2022/06/25 09:33:00;;;;;;;4.13;1.70;;;25.40;99.90;;;;;;4947725;28;20055;-74
2022/06/25 09:35:41;;;;;;;4.97;2.13;;;25.50;99.90;;;;;;4943873;28;20175;-73
2022/06/25 09:38:12;;;;;;;5.03;2.00;;;25.60;99.90;;;;;;4942410;29;20360;-74
2022/06/25 09:40:46;;;;;;;34.35;7.32;;;25.80;99.90;;;;;;4940732;29;20417;-73
2022/06/25 09:43:20;;;;;;;5.15;1.48;;;26.10;99.90;;;;;;4943575;29;20134;-77
2022/06/25 09:45:51;;;;;;;7.25;1.77;;;26.40;99.90;;;;;;4923360;29;20055;-74
2022/06/25 09:48:21;;;;;;;5.40;1.83;;;26.50;99.90;;;;;;4910569;29;20130;-75
2022/06/25 09:51:07;;;;;;;4.63;1.40;;;26.40;99.90;;;;;;4921196;29;20063;-74
2022/06/25 09:53:35;;;;;;;8.48;1.70;;;26.40;99.90;;;;;;4925040;29;20291;-74
2022/06/25 09:56:02;;;;;;;4.38;1.33;;;26.20;99.90;;;;;;4948352;28;20109;-73
2022/06/25 09:58:31;;;;;;;7.68;1.98;;;25.90;99.90;;;;;;4939448;28;20134;-73
2022/06/25 10:00:57;;;;;;;5.13;1.45;;;25.80;99.90;;;;;;4940242;29;20047;-73
2022/06/25 10:03:25;;;;;;;3.60;1.10;;;25.70;99.90;;;;;;4924977;29;20083;-74
2022/06/25 10:05:53;;;;;;;4.55;1.35;;;25.60;99.90;;;;;;4923972;28;20614;-73
2022/06/25 10:08:21;;;;;;;6.88;1.40;;;25.60;99.90;;;;;;4943730;28;20055;-72
2022/06/25 10:10:50;;;;;;;4.05;1.27;;;25.60;99.90;;;;;;4922908;28;20452;-73
2022/06/25 10:13:16;;;;;;;3.15;1.20;;;25.60;99.90;;;;;;4941305;28;20039;-75
2022/06/25 10:15:44;;;;;;;3.05;1.13;;;25.40;99.90;;;;;;4925354;29;20069;-74
2022/06/25 10:18:11;;;;;;;3.90;1.20;;;25.30;99.90;;;;;;4938900;28;20047;-74
2022/06/25 10:20:39;;;;;;;4.68;1.40;;;25.30;99.90;;;;;;4937010;28;20069;-75
2022/06/25 10:23:07;;;;;;;3.38;1.23;;;25.20;99.90;;;;;;4930741;29;20445;-74
2022/06/25 10:25:34;;;;;;;3.78;1.30;;;25.00;99.90;;;;;;4929235;29;20043;-74
2022/06/25 10:28:12;;;;;;;3.13;1.10;;;24.90;99.90;;;;;;4931867;29;20603;-75
2022/06/25 10:30:52;;;;;;;5.78;1.33;;;24.90;99.90;;;;;;4929777;29;20106;-75
2022/06/25 10:33:22;;;;;;;3.10;1.10;;;25.40;99.90;;;;;;4945026;28;20032;-74
2022/06/25 10:35:50;;;;;;;5.40;1.30;;;25.80;99.90;;;;;;4947718;28;20082;-73
2022/06/25 10:38:17;;;;;;;5.05;1.00;;;26.20;99.90;;;;;;4932512;29;20094;-73
2022/06/25 10:40:49;;;;;;;3.42;1.30;;;26.60;99.90;;;;;;4950689;28;20031;-73
2022/06/25 10:43:41;;;;;;;2.85;1.08;;;27.00;99.90;;;;;;4945093;29;20070;-74
2022/06/25 10:46:26;;;;;;;4.13;1.20;;;26.90;99.90;;;;;;4943658;29;20109;-73
2022/06/25 10:49:07;;;;;;;4.03;1.08;;;26.90;99.90;;;;;;4942971;28;20047;-73
2022/06/25 10:51:38;;;;;;;3.13;1.20;;;27.20;99.90;;;;;;4911003;29;20374;-75
2022/06/25 10:54:05;;;;;;;4.90;1.38;;;27.50;99.90;;;;;;4927629;29;20054;-74
2022/06/25 10:56:44;;;;;;;3.60;1.25;;;27.70;99.90;;;;;;4936910;29;20278;-75
2022/06/25 10:59:14;;;;;;;6.47;1.15;;;27.30;99.90;;;;;;4946135;28;20050;-72
2022/06/25 11:01:40;;;;;;;4.80;1.30;;;26.80;99.90;;;;;;4937921;29;20441;-73
2022/06/25 11:04:11;;;;;;;4.22;1.05;;;26.10;99.90;;;;;;4943467;29;20305;-73
2022/06/25 11:06:39;;;;;;;2.72;1.00;;;25.50;99.90;;;;;;4925105;29;20039;-74
2022/06/25 11:09:10;;;;;;;4.63;0.90;;;25.10;99.90;;;;;;4944579;28;20444;-72
2022/06/25 11:11:37;;;;;;;3.17;0.90;;;24.80;99.90;;;;;;4923623;29;20040;-72
2022/06/25 11:14:13;;;;;;;5.53;1.20;;;24.60;99.90;;;;;;4938124;29;20613;-72
2022/06/25 11:16:38;;;;;;;5.20;1.20;;;24.50;99.90;;;;;;4919498;29;20043;-73
2022/06/25 11:19:04;;;;;;;6.10;1.65;;;24.40;99.90;;;;;;4933471;28;20055;-73
2022/06/25 11:21:38;;;;;;;5.10;1.35;;;24.30;99.90;;;;;;4943403;28;20055;-73
2022/06/25 11:24:13;;;;;;;4.65;1.52;;;24.40;99.90;;;;;;4929404;28;20051;-73
2022/06/25 11:29:35;;;;;;;4.07;1.17;;;25.00;99.90;;;;;;4939783;29;20062;-72
2022/06/25 11:32:01;;;;;;;2.70;1.10;;;25.10;99.90;;;;;;4938225;28;20047;-72
2022/06/25 11:34:28;;;;;;;3.30;1.05;;;25.30;99.90;;;;;;4941867;28;20090;-70
2022/06/25 11:37:03;;;;;;;3.67;1.13;;;25.70;99.90;;;;;;4928301;29;20591;-74
2022/06/25 11:39:30;;;;;;;4.53;1.30;;;26.20;99.90;;;;;;4922311;29;20131;-74
2022/06/25 11:41:56;;;;;;;2.55;1.10;;;26.20;99.90;;;;;;4940331;29;20043;-74
2022/06/25 11:44:22;;;;;;;5.53;1.63;;;26.10;99.90;;;;;;4934655;28;20047;-76
2022/06/25 11:46:49;;;;;;;7.45;2.00;;;25.80;99.90;;;;;;4938662;28;20055;-73
2022/06/25 11:49:16;;;;;;;6.95;2.13;;;25.50;99.90;;;;;;4936690;29;20047;-74
2022/06/25 11:51:51;;;;;;;10.82;2.42;;;25.30;99.90;;;;;;4938251;29;20134;-75
2022/06/25 11:54:21;;;;;;;6.65;1.80;;;25.00;99.90;;;;;;4929194;29;20125;-74
2022/06/25 11:56:49;;;;;;;8.73;1.58;;;24.80;99.90;;;;;;4942538;28;20090;-75
2022/06/25 11:59:29;;;;;;;5.38;1.55;;;24.60;99.90;;;;;;4928973;29;20051;-75
2022/06/25 12:01:56;;;;;;;8.43;2.17;;;24.30;99.90;;;;;;4937194;28;21616;-74
2022/06/25 12:04:22;;;;;;;7.55;1.98;;;24.20;99.90;;;;;;4922646;29;20065;-75
2022/06/25 12:06:49;;;;;;;5.10;1.40;;;24.00;99.90;;;;;;4937085;28;20110;-78
2022/06/25 12:09:17;;;;;;;8.00;1.95;;;23.90;99.90;;;;;;4939738;28;20421;-76
2022/06/25 12:11:51;;;;;;;5.22;1.35;;;23.80;99.90;;;;;;4922103;28;20067;-77
2022/06/25 12:14:22;;;;;;;4.95;1.42;;;23.70;99.90;;;;;;4924898;29;20051;-77
2022/06/25 12:16:49;;;;;;;4.78;2.10;;;23.60;99.90;;;;;;4940024;28;20063;-77
2022/06/25 12:19:15;;;;;;;4.97;1.50;;;23.60;99.90;;;;;;4943951;28;20079;-77
2022/06/25 12:21:41;;;;;;;6.28;1.75;;;23.50;99.90;;;;;;4938812;28;20039;-77
2022/06/25 12:24:12;;;;;;;5.47;1.98;;;23.40;99.90;;;;;;4928258;28;20052;-77
2022/06/25 12:26:41;;;;;;;;;;;23.40;99.90;;;;;;4945093;28;20047;-78
2022/06/25 12:29:13;;;;;;;7.95;2.13;;;23.30;99.90;;;;;;4943916;28;19962;-77
2022/06/25 12:31:40;;;;;;;7.72;2.30;;;23.10;99.90;;;;;;4925759;29;20039;-77
2022/06/25 12:34:07;;;;;;;10.70;2.92;;;23.00;99.90;;;;;;4941304;28;20050;-77
2022/06/25 12:36:38;;;;;;;7.55;2.42;;;22.90;99.90;;;;;;4945074;28;20105;-79
2022/06/25 12:39:31;;;;;;;5.18;1.50;;;22.70;99.90;;;;;;4911859;28;20051;-78
2022/06/25 12:42:01;;;;;;;7.93;2.17;;;22.60;99.90;;;;;;4928399;29;20366;-79
2022/06/25 12:44:32;;;;;;;4.03;1.63;;;22.50;99.90;;;;;;4924798;29;20047;-78
2022/06/25 12:47:16;;;;;;;;;;;22.40;99.90;;;;;;4926666;28;20051;-78
2022/06/25 12:49:53;;;;;;;6.93;2.38;;;22.40;99.90;;;;;;4943202;28;20069;-77
2022/06/25 12:52:35;;;;;;;3.85;1.50;;;22.30;99.90;;;;;;4940096;28;20078;-78
2022/06/25 12:55:01;;;;;;;6.75;1.60;;;22.20;99.90;;;;;;4944276;28;20047;-78